sensor_id;sensor_type;location;lat;lon;timestamp;pressure;altitude;pressure_sealevel;temperature;humidity
43420;BME280;29017;51.514;-0.178;2023-02-21T00:00:37;101693.94;;;12.25;86.45
43420;BME280;29017;51.514;-0.178;2023-02-21T00:03:07;101688.97;;;12.22;86.04
43420;BME280;29017;51.514;-0.178;2023-02-21T00:05:38;101692.44;;;12.22;86.61
43420;BME280;29017;51.514;-0.178;2023-02-21T00:08:08;101700.06;;;12.25;86.96
43420;BME280;29017;51.514;-0.178;2023-02-21T00:10:38;101693.81;;;12.26;86.82
43420;BME280;29017;51.514;-0.178;2023-02-21T00:13:08;101696.75;;;12.23;86.49
43420;BME280;29017;51.514;-0.178;2023-02-21T00:15:38;101697.56;;;12.24;86.88
43420;BME280;29017;51.514;-0.178;2023-02-21T00:18:08;101696.75;;;12.23;86.95
43420;BME280;29017;51.514;-0.178;2023-02-21T00:20:38;101697.97;;;12.29;87.44
43420;BME280;29017;51.514;-0.178;2023-02-21T00:23:09;101697.16;;;12.28;87.65
43420;BME280;29017;51.514;-0.178;2023-02-21T00:25:39;101687.13;;;12.32;87.95
43420;BME280;29017;51.514;-0.178;2023-02-21T00:28:09;101694.06;;;12.33;87.49
43420;BME280;29017;51.514;-0.178;2023-02-21T00:30:39;101691.44;;;12.33;86.96
43420;BME280;29017;51.514;-0.178;2023-02-21T00:33:10;101689.63;;;12.33;87.24
43420;BME280;29017;51.514;-0.178;2023-02-21T00:35:41;101686.28;;;12.31;86.94
43420;BME280;29017;51.514;-0.178;2023-02-21T00:38:12;101687.97;;;12.32;87.03
43420;BME280;29017;51.514;-0.178;2023-02-21T00:40:43;101678.25;;;12.33;86.71
43420;BME280;29017;51.514;-0.178;2023-02-21T00:43:14;101685.19;;;12.34;86.32
43420;BME280;29017;51.514;-0.178;2023-02-21T00:45:46;101684.19;;;12.35;85.71
43420;BME280;29017;51.514;-0.178;2023-02-21T00:50:50;101681.72;;;12.33;85.41
43420;BME280;29017;51.514;-0.178;2023-02-21T00:53:22;101679.91;;;12.34;85.23
43420;BME280;29017;51.514;-0.178;2023-02-21T00:55:52;101676.44;;;12.33;85.58
43420;BME280;29017;51.514;-0.178;2023-02-21T00:58:22;101679.06;;;12.33;85.66
43420;BME280;29017;51.514;-0.178;2023-02-21T01:00:52;101682.56;;;12.34;84.97
43420;BME280;29017;51.514;-0.178;2023-02-21T01:03:23;101676.28;;;12.35;85.86
43420;BME280;29017;51.514;-0.178;2023-02-21T01:05:53;101671.16;;;12.33;85.60
43420;BME280;29017;51.514;-0.178;2023-02-21T01:08:23;101671.16;;;12.33;84.94
43420;BME280;29017;51.514;-0.178;2023-02-21T01:13:45;101662.94;;;12.36;85.13
43420;BME280;29017;51.514;-0.178;2023-02-21T01:16:15;101653.22;;;12.37;84.95
43420;BME280;29017;51.514;-0.178;2023-02-21T01:18:45;101666.41;;;12.37;85.50
43420;BME280;29017;51.514;-0.178;2023-02-21T01:21:16;101656.84;;;12.36;85.37
43420;BME280;29017;51.514;-0.178;2023-02-21T01:23:47;101647.13;;;12.36;84.80
43420;BME280;29017;51.514;-0.178;2023-02-21T01:26:17;101645.31;;;12.37;85.29
43420;BME280;29017;51.514;-0.178;2023-02-21T01:28:47;101649.63;;;12.38;85.50
43420;BME280;29017;51.514;-0.178;2023-02-21T01:31:17;101650.59;;;12.37;85.63
43420;BME280;29017;51.514;-0.178;2023-02-21T01:33:48;101647.94;;;12.37;85.79
43420;BME280;29017;51.514;-0.178;2023-02-21T01:36:18;101649.63;;;12.38;85.04
43420;BME280;29017;51.514;-0.178;2023-02-21T01:38:48;101651.28;;;12.39;85.22
43420;BME280;29017;51.514;-0.178;2023-02-21T01:41:19;101643.50;;;12.37;85.30
43420;BME280;29017;51.514;-0.178;2023-02-21T01:46:23;101639.19;;;12.36;85.76
43420;BME280;29017;51.514;-0.178;2023-02-21T01:48:53;101639.31;;;12.35;85.53
43420;BME280;29017;51.514;-0.178;2023-02-21T01:51:25;101632.69;;;12.31;85.48
43420;BME280;29017;51.514;-0.178;2023-02-21T01:53:57;101630.19;;;12.29;85.64
43420;BME280;29017;51.514;-0.178;2023-02-21T01:56:27;101630.88;;;12.31;85.20
43420;BME280;29017;51.514;-0.178;2023-02-21T01:58:59;101621.28;;;12.30;84.77
43420;BME280;29017;51.514;-0.178;2023-02-21T02:01:35;101623.09;;;12.30;84.66
43420;BME280;29017;51.514;-0.178;2023-02-21T02:04:07;101624.09;;;12.29;84.18
43420;BME280;29017;51.514;-0.178;2023-02-21T02:06:38;101622.56;;;12.26;84.18
43420;BME280;29017;51.514;-0.178;2023-02-21T02:19:21;101604.13;;;12.17;84.41
43420;BME280;29017;51.514;-0.178;2023-02-21T02:36:52;101582.06;;;12.18;84.77
43420;BME280;29017;51.514;-0.178;2023-02-21T02:44:26;101571.50;;;12.18;84.82
43420;BME280;29017;51.514;-0.178;2023-02-21T02:46:55;101572.34;;;12.18;84.97
43420;BME280;29017;51.514;-0.178;2023-02-21T02:49:26;101571.34;;;12.19;84.30
43420;BME280;29017;51.514;-0.178;2023-02-21T02:51:54;101573.97;;;12.19;84.19
43420;BME280;29017;51.514;-0.178;2023-02-21T02:54:21;101576.06;;;12.16;84.58
43420;BME280;29017;51.514;-0.178;2023-02-21T02:56:48;101565.53;;;12.16;84.77
43420;BME280;29017;51.514;-0.178;2023-02-21T02:59:16;101581.22;;;12.17;85.09
43420;BME280;29017;51.514;-0.178;2023-02-21T03:11:42;101563.75;;;12.07;85.38
43420;BME280;29017;51.514;-0.178;2023-02-21T03:14:12;101554.16;;;12.06;85.28
43420;BME280;29017;51.514;-0.178;2023-02-21T03:16:43;101562.53;;;12.01;85.46
43420;BME280;29017;51.514;-0.178;2023-02-21T03:19:14;101563.50;;;12.00;84.82
43420;BME280;29017;51.514;-0.178;2023-02-21T03:21:46;101559.34;;;11.97;84.25
43420;BME280;29017;51.514;-0.178;2023-02-21T03:24:15;101561.03;;;11.98;84.62
43420;BME280;29017;51.514;-0.178;2023-02-21T03:26:44;101556.72;;;11.97;84.65
43420;BME280;29017;51.514;-0.178;2023-02-21T03:29:13;101558.78;;;11.94;84.47
43420;BME280;29017;51.514;-0.178;2023-02-21T03:31:43;101554.50;;;11.93;84.28
43420;BME280;29017;51.514;-0.178;2023-02-21T03:34:12;101551.72;;;11.94;84.23
43420;BME280;29017;51.514;-0.178;2023-02-21T03:36:39;101550.88;;;11.94;84.47
43420;BME280;29017;51.514;-0.178;2023-02-21T03:39:07;101549.91;;;11.95;84.63
43420;BME280;29017;51.514;-0.178;2023-02-21T03:41:34;101549.91;;;11.95;84.33
43420;BME280;29017;51.514;-0.178;2023-02-21T03:44:01;101543.13;;;11.92;84.31
43420;BME280;29017;51.514;-0.178;2023-02-21T03:46:28;101551.31;;;11.89;84.75
43420;BME280;29017;51.514;-0.178;2023-02-21T03:48:56;101540.94;;;11.88;84.66
43420;BME280;29017;51.514;-0.178;2023-02-21T03:51:24;101547.16;;;11.87;84.51
43420;BME280;29017;51.514;-0.178;2023-02-21T03:53:51;101540.09;;;11.87;84.71
43420;BME280;29017;51.514;-0.178;2023-02-21T03:56:18;101542.72;;;11.87;84.19
43420;BME280;29017;51.514;-0.178;2023-02-21T03:58:47;101533.84;;;11.88;84.59
43420;BME280;29017;51.514;-0.178;2023-02-21T04:01:14;101545.19;;;11.89;84.71
43420;BME280;29017;51.514;-0.178;2023-02-21T04:03:42;101538.94;;;11.90;85.16
43420;BME280;29017;51.514;-0.178;2023-02-21T04:06:09;101540.75;;;11.89;85.49
43420;BME280;29017;51.514;-0.178;2023-02-21T04:08:36;101542.56;;;11.89;85.33
43420;BME280;29017;51.514;-0.178;2023-02-21T04:11:03;101546.03;;;11.89;84.95
43420;BME280;29017;51.514;-0.178;2023-02-21T04:13:30;101544.22;;;11.90;84.79
43420;BME280;29017;51.514;-0.178;2023-02-21T04:15:57;101544.09;;;11.91;84.85
43420;BME280;29017;51.514;-0.178;2023-02-21T04:18:24;101536.31;;;11.90;84.23
43420;BME280;29017;51.514;-0.178;2023-02-21T04:20:51;101531.03;;;11.90;84.83
43420;BME280;29017;51.514;-0.178;2023-02-21T04:23:20;101536.31;;;11.90;84.49
43420;BME280;29017;51.514;-0.178;2023-02-21T04:25:47;101527.44;;;11.91;84.70
43420;BME280;29017;51.514;-0.178;2023-02-21T04:28:14;101529.53;;;11.87;84.38
43420;BME280;29017;51.514;-0.178;2023-02-21T04:30:42;101531.22;;;11.88;84.95
43420;BME280;29017;51.514;-0.178;2023-02-21T04:33:09;101525.94;;;11.88;84.79
43420;BME280;29017;51.514;-0.178;2023-02-21T04:35:36;101525.09;;;11.88;84.32
43420;BME280;29017;51.514;-0.178;2023-02-21T04:38:03;101528.56;;;11.88;84.66
43420;BME280;29017;51.514;-0.178;2023-02-21T04:40:30;101526.91;;;11.87;84.49
43420;BME280;29017;51.514;-0.178;2023-02-21T04:42:57;101522.72;;;11.85;84.49
43420;BME280;29017;51.514;-0.178;2023-02-21T04:45:24;101528.00;;;11.85;84.55
43420;BME280;29017;51.514;-0.178;2023-02-21T04:47:51;101527.59;;;11.80;84.41
43420;BME280;29017;51.514;-0.178;2023-02-21T04:50:19;101526.94;;;11.78;84.82
43420;BME280;29017;51.514;-0.178;2023-02-21T04:52:46;101524.44;;;11.76;85.00
43420;BME280;29017;51.514;-0.178;2023-02-21T04:55:13;101521.81;;;11.76;84.49
43420;BME280;29017;51.514;-0.178;2023-02-21T04:57:41;101520.13;;;11.75;84.72
43420;BME280;29017;51.514;-0.178;2023-02-21T05:00:09;101519.28;;;11.75;84.87
43420;BME280;29017;51.514;-0.178;2023-02-21T05:02:36;101514.19;;;11.73;84.57
43420;BME280;29017;51.514;-0.178;2023-02-21T05:05:03;101513.34;;;11.73;85.04
43420;BME280;29017;51.514;-0.178;2023-02-21T05:07:31;101518.63;;;11.73;85.03
43420;BME280;29017;51.514;-0.178;2023-02-21T05:09:58;101516.81;;;11.73;84.96
43420;BME280;29017;51.514;-0.178;2023-02-21T05:12:25;101520.13;;;11.75;85.80
43420;BME280;29017;51.514;-0.178;2023-02-21T05:14:52;101514.19;;;11.73;85.51
43420;BME280;29017;51.514;-0.178;2023-02-21T05:17:19;101507.91;;;11.74;86.03
43420;BME280;29017;51.514;-0.178;2023-02-21T05:19:46;101510.56;;;11.74;85.83
43420;BME280;29017;51.514;-0.178;2023-02-21T05:22:13;101506.13;;;11.75;86.27
43420;BME280;29017;51.514;-0.178;2023-02-21T05:24:46;101507.22;;;11.72;85.97
43420;BME280;29017;51.514;-0.178;2023-02-21T05:27:15;101502.91;;;11.71;86.10
43420;BME280;29017;51.514;-0.178;2023-02-21T05:32:13;101502.38;;;11.68;86.33
43420;BME280;29017;51.514;-0.178;2023-02-21T05:34:41;101504.31;;;11.66;85.83
43420;BME280;29017;51.514;-0.178;2023-02-21T05:37:10;101511.81;;;11.61;85.63
43420;BME280;29017;51.514;-0.178;2023-02-21T05:39:37;101507.81;;;11.56;85.77
43420;BME280;29017;51.514;-0.178;2023-02-21T05:42:04;101508.06;;;11.53;85.96
43420;BME280;29017;51.514;-0.178;2023-02-21T05:44:32;101504.59;;;11.53;85.90
43420;BME280;29017;51.514;-0.178;2023-02-21T05:46:59;101508.25;;;11.52;85.67
43420;BME280;29017;51.514;-0.178;2023-02-21T05:49:28;101512.50;;;11.53;86.15
43420;BME280;29017;51.514;-0.178;2023-02-21T05:51:55;101502.81;;;11.53;85.75
43420;BME280;29017;51.514;-0.178;2023-02-21T05:54:22;101498.38;;;11.54;85.84
43420;BME280;29017;51.514;-0.178;2023-02-21T05:56:50;101504.59;;;11.53;85.51
43420;BME280;29017;51.514;-0.178;2023-02-21T05:59:18;101490.75;;;11.51;85.17
43420;BME280;29017;51.514;-0.178;2023-02-21T06:01:46;101496.16;;;11.49;85.36
43420;BME280;29017;51.514;-0.178;2023-02-21T06:04:14;101496.03;;;11.51;86.54
43420;BME280;29017;51.514;-0.178;2023-02-21T06:06:41;101491.72;;;11.50;85.66
43420;BME280;29017;51.514;-0.178;2023-02-21T06:09:09;101493.53;;;11.49;85.29
43420;BME280;29017;51.514;-0.178;2023-02-21T06:11:37;101496.16;;;11.49;85.11
43420;BME280;29017;51.514;-0.178;2023-02-21T06:14:06;101499.63;;;11.50;84.94
43420;BME280;29017;51.514;-0.178;2023-02-21T06:16:36;101504.06;;;11.49;84.69
43420;BME280;29017;51.514;-0.178;2023-02-21T06:19:04;101498.94;;;11.48;84.68
43420;BME280;29017;51.514;-0.178;2023-02-21T06:21:32;101498.94;;;11.48;84.49
43420;BME280;29017;51.514;-0.178;2023-02-21T06:23:59;101511.13;;;11.49;84.17
43420;BME280;29017;51.514;-0.178;2023-02-21T06:26:26;101508.81;;;11.46;84.36
43420;BME280;29017;51.514;-0.178;2023-02-21T06:28:53;101514.19;;;11.44;84.08
43420;BME280;29017;51.514;-0.178;2023-02-21T06:31:21;101517.41;;;11.38;83.94
43420;BME280;29017;51.514;-0.178;2023-02-21T06:33:48;101514.34;;;11.33;84.14
43420;BME280;29017;51.514;-0.178;2023-02-21T06:36:18;101512.13;;;11.29;84.15
43420;BME280;29017;51.514;-0.178;2023-02-21T06:38:47;101515.91;;;11.26;84.68
43420;BME280;29017;51.514;-0.178;2023-02-21T06:41:17;101518.25;;;11.20;85.10
43420;BME280;29017;51.514;-0.178;2023-02-21T06:43:45;101510.47;;;11.18;84.97
43420;BME280;29017;51.514;-0.178;2023-02-21T06:48:42;101513.13;;;11.18;85.46
43420;BME280;29017;51.514;-0.178;2023-02-21T06:51:09;101508.84;;;11.17;85.27
43420;BME280;29017;51.514;-0.178;2023-02-21T06:53:37;101514.91;;;11.18;86.05
43420;BME280;29017;51.514;-0.178;2023-02-21T06:56:04;101510.47;;;11.18;86.41
43420;BME280;29017;51.514;-0.178;2023-02-21T06:58:32;101507.19;;;11.16;86.23
43420;BME280;29017;51.514;-0.178;2023-02-21T07:01:00;101515.22;;;11.14;85.90
43420;BME280;29017;51.514;-0.178;2023-02-21T07:03:27;101508.28;;;11.13;85.91
43420;BME280;29017;51.514;-0.178;2023-02-21T07:05:54;101504.38;;;11.18;85.96
43420;BME280;29017;51.514;-0.178;2023-02-21T07:08:21;101504.00;;;11.22;86.05
43420;BME280;29017;51.514;-0.178;2023-02-21T07:10:48;101506.63;;;11.22;86.07
43420;BME280;29017;51.514;-0.178;2023-02-21T07:13:16;101504.94;;;11.21;85.42
43420;BME280;29017;51.514;-0.178;2023-02-21T07:15:43;101503.28;;;11.20;85.01
43420;BME280;29017;51.514;-0.178;2023-02-21T07:18:11;101505.09;;;11.20;85.56
43420;BME280;29017;51.514;-0.178;2023-02-21T07:20:38;101499.94;;;11.18;85.46
43420;BME280;29017;51.514;-0.178;2023-02-21T07:23:03;101501.75;;;11.18;85.51
43420;BME280;29017;51.514;-0.178;2023-02-21T07:25:31;101510.47;;;11.18;84.95
43420;BME280;29017;51.514;-0.178;2023-02-21T07:27:58;101510.47;;;11.18;84.82
43420;BME280;29017;51.514;-0.178;2023-02-21T07:30:25;101503.41;;;11.19;84.83
43420;BME280;29017;51.514;-0.178;2023-02-21T07:32:52;101509.81;;;11.16;84.71
43420;BME280;29017;51.514;-0.178;2023-02-21T07:35:40;101513.28;;;11.17;85.77
43420;BME280;29017;51.514;-0.178;2023-02-21T07:38:07;101507.31;;;11.14;85.18
43420;BME280;29017;51.514;-0.178;2023-02-21T07:40:34;101508.28;;;11.13;85.20
43420;BME280;29017;51.514;-0.178;2023-02-21T07:43:01;101511.75;;;11.14;85.10
43420;BME280;29017;51.514;-0.178;2023-02-21T07:45:28;101510.78;;;11.15;85.75
43420;BME280;29017;51.514;-0.178;2023-02-21T07:47:55;101511.47;;;11.17;86.27
43420;BME280;29017;51.514;-0.178;2023-02-21T07:50:22;101519.09;;;11.20;86.44
43420;BME280;29017;51.514;-0.178;2023-02-21T07:52:49;101515.75;;;11.18;86.35
43420;BME280;29017;51.514;-0.178;2023-02-21T07:55:17;101515.50;;;11.21;85.93
43420;BME280;29017;51.514;-0.178;2023-02-21T07:57:44;101512.44;;;11.26;85.98
43420;BME280;29017;51.514;-0.178;2023-02-21T08:00:12;101511.47;;;11.27;85.46
43420;BME280;29017;51.514;-0.178;2023-02-21T08:02:39;101526.56;;;11.25;85.12
43420;BME280;29017;51.514;-0.178;2023-02-21T08:05:07;101518.78;;;11.23;85.70
43420;BME280;29017;51.514;-0.178;2023-02-21T08:07:34;101522.13;;;11.25;85.63
43420;BME280;29017;51.514;-0.178;2023-02-21T08:10:03;101524.34;;;11.30;85.52
43420;BME280;29017;51.514;-0.178;2023-02-21T08:12:30;101520.63;;;11.32;86.33
43420;BME280;29017;51.514;-0.178;2023-02-21T08:14:58;101517.81;;;11.34;86.54
43420;BME280;29017;51.514;-0.178;2023-02-21T08:17:25;101519.50;;;11.35;85.49
43420;BME280;29017;51.514;-0.178;2023-02-21T08:19:52;101520.88;;;11.39;85.45
43420;BME280;29017;51.514;-0.178;2023-02-21T08:22:20;101518.09;;;11.40;85.45
43420;BME280;29017;51.514;-0.178;2023-02-21T08:24:48;101521.56;;;11.41;85.33
43420;BME280;29017;51.514;-0.178;2023-02-21T08:27:16;101525.03;;;11.41;85.19
43420;BME280;29017;51.514;-0.178;2023-02-21T08:29:44;101516.16;;;11.42;86.09
43420;BME280;29017;51.514;-0.178;2023-02-21T08:32:16;101516.16;;;11.42;85.25
43420;BME280;29017;51.514;-0.178;2023-02-21T08:34:44;101517.25;;;11.40;84.87
43420;BME280;29017;51.514;-0.178;2023-02-21T08:37:11;101509.22;;;11.41;85.48
43420;BME280;29017;51.514;-0.178;2023-02-21T08:39:43;101510.31;;;11.39;84.87
43420;BME280;29017;51.514;-0.178;2023-02-21T08:42:11;101509.88;;;11.63;92.42
43420;BME280;29017;51.514;-0.178;2023-02-21T08:44:41;101514.84;;;11.66;90.74
43420;BME280;29017;51.514;-0.178;2023-02-21T08:47:08;101514.84;;;11.66;87.14
43420;BME280;29017;51.514;-0.178;2023-02-21T08:49:36;101514.44;;;11.61;85.22
43420;BME280;29017;51.514;-0.178;2023-02-21T08:52:07;101520.81;;;11.58;85.05
43420;BME280;29017;51.514;-0.178;2023-02-21T08:54:36;101518.88;;;11.60;85.14
43420;BME280;29017;51.514;-0.178;2023-02-21T08:57:03;101522.22;;;11.62;84.87
43420;BME280;29017;51.514;-0.178;2023-02-21T08:59:31;101521.22;;;11.63;84.83
43420;BME280;29017;51.514;-0.178;2023-02-21T09:02:00;101525.53;;;11.64;84.73
43420;BME280;29017;51.514;-0.178;2023-02-21T09:04:27;101524.44;;;11.67;85.91
43420;BME280;29017;51.514;-0.178;2023-02-21T09:06:55;101535.25;;;11.64;84.07
43420;BME280;29017;51.514;-0.178;2023-02-21T09:09:22;101526.09;;;11.58;83.65
43420;BME280;29017;51.514;-0.178;2023-02-21T09:11:49;101518.19;;;11.58;83.77
43420;BME280;29017;51.514;-0.178;2023-02-21T09:14:16;101524.28;;;11.58;83.82
43420;BME280;29017;51.514;-0.178;2023-02-21T09:16:43;101530.56;;;11.57;83.61
43420;BME280;29017;51.514;-0.178;2023-02-21T09:19:13;101519.72;;;11.61;83.93
43420;BME280;29017;51.514;-0.178;2023-02-21T09:21:44;101517.91;;;11.61;82.13
43420;BME280;29017;51.514;-0.178;2023-02-21T09:24:13;101512.22;;;11.66;82.70
43420;BME280;29017;51.514;-0.178;2023-02-21T09:26:40;101516.22;;;11.70;82.70
43420;BME280;29017;51.514;-0.178;2023-02-21T09:29:08;101512.50;;;11.72;82.16
43420;BME280;29017;51.514;-0.178;2023-02-21T09:31:37;101524.13;;;11.79;84.19
43420;BME280;29017;51.514;-0.178;2023-02-21T09:34:05;101512.34;;;11.83;84.07
43420;BME280;29017;51.514;-0.178;2023-02-21T09:36:34;101510.25;;;11.87;83.50
43420;BME280;29017;51.514;-0.178;2023-02-21T09:39:02;101506.03;;;11.94;83.37
43420;BME280;29017;51.514;-0.178;2023-02-21T09:41:33;101499.66;;;11.96;82.80
43420;BME280;29017;51.514;-0.178;2023-02-21T09:44:01;101508.53;;;11.95;82.02
43420;BME280;29017;51.514;-0.178;2023-02-21T09:46:33;101500.09;;;11.92;82.13
43420;BME280;29017;51.514;-0.178;2023-02-21T09:49:02;101493.84;;;11.93;82.98
43420;BME280;29017;51.514;-0.178;2023-02-21T09:51:30;101495.66;;;11.92;82.32
43420;BME280;29017;51.514;-0.178;2023-02-21T09:53:59;101491.06;;;11.94;82.28
43420;BME280;29017;51.514;-0.178;2023-02-21T09:58:55;101488.81;;;11.99;82.90
43420;BME280;29017;51.514;-0.178;2023-02-21T10:04:00;101479.41;;;11.97;83.00
43420;BME280;29017;51.514;-0.178;2023-02-21T10:06:35;101486.03;;;12.01;82.70
43420;BME280;29017;51.514;-0.178;2023-02-21T10:09:07;101482.28;;;12.04;82.82
43420;BME280;29017;51.514;-0.178;2023-02-21T10:16:32;101491.41;;;12.09;82.37
43420;BME280;29017;51.514;-0.178;2023-02-21T10:19:03;101490.81;;;12.15;83.17
43420;BME280;29017;51.514;-0.178;2023-02-21T10:21:34;101495.81;;;12.18;82.99
43420;BME280;29017;51.514;-0.178;2023-02-21T10:24:02;101486.63;;;12.22;83.25
43420;BME280;29017;51.514;-0.178;2023-02-21T10:26:37;101493.28;;;12.26;82.58
43420;BME280;29017;51.514;-0.178;2023-02-21T10:31:38;101482.28;;;12.31;82.33
43420;BME280;29017;51.514;-0.178;2023-02-21T10:34:09;101481.28;;;12.32;82.08
43420;BME280;29017;51.514;-0.178;2023-02-21T10:36:52;101480.72;;;12.38;82.09
43420;BME280;29017;51.514;-0.178;2023-02-21T10:39:30;101473.19;;;12.43;81.89
43420;BME280;29017;51.514;-0.178;2023-02-21T10:42:00;101475.50;;;12.46;81.63
43420;BME280;29017;51.514;-0.178;2023-02-21T10:44:28;101471.91;;;12.47;81.21
43420;BME280;29017;51.514;-0.178;2023-02-21T10:49:27;101470.84;;;12.58;81.98
43420;BME280;29017;51.514;-0.178;2023-02-21T10:54:29;101469.88;;;12.59;81.21
43420;BME280;29017;51.514;-0.178;2023-02-21T10:57:01;101466.41;;;12.58;80.86
43420;BME280;29017;51.514;-0.178;2023-02-21T10:59:31;101467.91;;;12.61;80.71
43420;BME280;29017;51.514;-0.178;2023-02-21T11:02:00;101464.44;;;12.60;80.39
43420;BME280;29017;51.514;-0.178;2023-02-21T11:04:30;101464.16;;;12.63;80.98
43420;BME280;29017;51.514;-0.178;2023-02-21T11:07:02;101471.91;;;12.65;80.88
43420;BME280;29017;51.514;-0.178;2023-02-21T11:09:32;101470.25;;;12.64;80.91
43420;BME280;29017;51.514;-0.178;2023-02-21T11:14:33;101473.03;;;12.62;80.39
43420;BME280;29017;51.514;-0.178;2023-02-21T11:17:06;101463.16;;;12.64;81.44
43420;BME280;29017;51.514;-0.178;2023-02-21T11:19:41;101469.63;;;12.70;80.99
43420;BME280;29017;51.514;-0.178;2023-02-21T11:22:09;101457.63;;;12.75;81.65
43420;BME280;29017;51.514;-0.178;2023-02-21T11:27:06;101460.50;;;12.82;81.24
43420;BME280;29017;51.514;-0.178;2023-02-21T11:29:34;101463.28;;;12.80;80.23
43420;BME280;29017;51.514;-0.178;2023-02-21T11:32:09;101458.19;;;12.79;80.10
43420;BME280;29017;51.514;-0.178;2023-02-21T11:34:38;101458.72;;;12.82;81.12
43420;BME280;29017;51.514;-0.178;2023-02-21T11:37:14;101450.47;;;12.85;81.38
43420;BME280;29017;51.514;-0.178;2023-02-21T11:39:41;101456.75;;;12.84;80.31
43420;BME280;29017;51.514;-0.178;2023-02-21T11:44:46;101437.94;;;12.88;80.33
43420;BME280;29017;51.514;-0.178;2023-02-21T11:52:20;101430.06;;;12.96;80.92
43420;BME280;29017;51.514;-0.178;2023-02-21T11:54:48;101421.72;;;13.00;79.87
43420;BME280;29017;51.514;-0.178;2023-02-21T11:59:51;101412.50;;;13.04;80.08
43420;BME280;29017;51.514;-0.178;2023-02-21T12:20:02;101372.72;;;13.32;78.84
43420;BME280;29017;51.514;-0.178;2023-02-21T12:37:34;101347.66;;;13.36;77.55
43420;BME280;29017;51.514;-0.178;2023-02-21T12:47:32;101342.13;;;13.55;78.31
43420;BME280;29017;51.514;-0.178;2023-02-21T13:05:17;101329.19;;;13.44;77.96
43420;BME280;29017;51.514;-0.178;2023-02-21T13:10:17;101321.41;;;13.42;78.33
43420;BME280;29017;51.514;-0.178;2023-02-21T13:17:49;101299.94;;;13.45;78.32
43420;BME280;29017;51.514;-0.178;2023-02-21T13:20:22;101296.47;;;13.45;78.53
43420;BME280;29017;51.514;-0.178;2023-02-21T13:33:20;101274.94;;;13.32;79.50
43420;BME280;29017;51.514;-0.178;2023-02-21T13:38:41;101272.13;;;13.33;79.16
43420;BME280;29017;51.514;-0.178;2023-02-21T13:41:33;101261.72;;;13.32;79.48
43420;BME280;29017;51.514;-0.178;2023-02-21T13:44:04;101251.00;;;13.33;79.94
43420;BME280;29017;51.514;-0.178;2023-02-21T14:04:01;101235.25;;;13.23;80.89
43420;BME280;29017;51.514;-0.178;2023-02-21T14:09:18;101227.84;;;13.27;80.34
43420;BME280;29017;51.514;-0.178;2023-02-21T14:11:47;101229.34;;;13.30;79.95
43420;BME280;29017;51.514;-0.178;2023-02-21T14:16:48;101220.41;;;13.22;80.45
43420;BME280;29017;51.514;-0.178;2023-02-21T14:21:47;101216.09;;;13.21;80.14
43420;BME280;29017;51.514;-0.178;2023-02-21T14:26:53;101213.63;;;13.20;80.68
43420;BME280;29017;51.514;-0.178;2023-02-21T14:31:57;101210.66;;;13.23;81.47
43420;BME280;29017;51.514;-0.178;2023-02-21T14:39:48;101195.63;;;13.15;81.82
43420;BME280;29017;51.514;-0.178;2023-02-21T14:49:47;101198.03;;;13.09;81.65
43420;BME280;29017;51.514;-0.178;2023-02-21T15:12:18;101191.97;;;12.82;84.26
43420;BME280;29017;51.514;-0.178;2023-02-21T15:14:47;101180.06;;;12.78;83.80
43420;BME280;29017;51.514;-0.178;2023-02-21T15:17:17;101180.06;;;12.78;83.67
43420;BME280;29017;51.514;-0.178;2023-02-21T15:19:45;101185.19;;;12.80;84.12
43420;BME280;29017;51.514;-0.178;2023-02-21T15:27:14;101178.41;;;12.77;84.20
43420;BME280;29017;51.514;-0.178;2023-02-21T15:29:42;101171.63;;;12.75;84.08
43420;BME280;29017;51.514;-0.178;2023-02-21T15:32:10;101167.66;;;12.71;84.65
43420;BME280;29017;51.514;-0.178;2023-02-21T15:34:40;101159.72;;;12.71;85.20
43420;BME280;29017;51.514;-0.178;2023-02-21T15:39:39;101161.38;;;12.64;84.95
43420;BME280;29017;51.514;-0.178;2023-02-21T15:42:08;101153.44;;;12.64;85.18
43420;BME280;29017;51.514;-0.178;2023-02-21T15:47:37;101139.91;;;12.59;85.34
43420;BME280;29017;51.514;-0.178;2023-02-21T15:50:16;101136.09;;;12.61;86.59
43420;BME280;29017;51.514;-0.178;2023-02-21T15:52:47;101135.44;;;12.59;86.09
43420;BME280;29017;51.514;-0.178;2023-02-21T16:02:48;101124.69;;;12.53;85.41
43420;BME280;29017;51.514;-0.178;2023-02-21T16:07:45;101121.69;;;12.48;85.41
43420;BME280;29017;51.514;-0.178;2023-02-21T16:10:16;101122.66;;;12.47;85.12
43420;BME280;29017;51.514;-0.178;2023-02-21T16:12:46;101120.66;;;12.40;84.59
43420;BME280;29017;51.514;-0.178;2023-02-21T16:20:19;101101.19;;;12.33;85.08
43420;BME280;29017;51.514;-0.178;2023-02-21T16:22:48;101109.75;;;12.35;85.84
43420;BME280;29017;51.514;-0.178;2023-02-21T16:25:33;101108.75;;;12.36;85.81
43420;BME280;29017;51.514;-0.178;2023-02-21T16:28:00;101109.59;;;12.37;85.14
43420;BME280;29017;51.514;-0.178;2023-02-21T16:30:28;101108.63;;;12.38;84.84
43420;BME280;29017;51.514;-0.178;2023-02-21T16:32:58;101105.00;;;12.39;84.86
43420;BME280;29017;51.514;-0.178;2023-02-21T16:35:25;101102.38;;;12.39;85.60
43420;BME280;29017;51.514;-0.178;2023-02-21T16:37:54;101095.56;;;12.36;84.87
43420;BME280;29017;51.514;-0.178;2023-02-21T16:40:23;101096.41;;;12.37;84.04
43420;BME280;29017;51.514;-0.178;2023-02-21T16:42:51;101099.72;;;12.39;84.78
43420;BME280;29017;51.514;-0.178;2023-02-21T16:45:19;101094.59;;;12.37;84.52
43420;BME280;29017;51.514;-0.178;2023-02-21T16:47:47;101092.25;;;12.34;83.58
43420;BME280;29017;51.514;-0.178;2023-02-21T16:50:16;101089.78;;;12.33;84.19
43420;BME280;29017;51.514;-0.178;2023-02-21T16:52:44;101090.78;;;12.32;84.57
43420;BME280;29017;51.514;-0.178;2023-02-21T16:55:13;101088.13;;;12.32;84.96
43420;BME280;29017;51.514;-0.178;2023-02-21T16:57:41;101092.06;;;12.28;83.44
43420;BME280;29017;51.514;-0.178;2023-02-21T17:00:08;101101.13;;;12.25;83.63